createdAt,value
2018-07-03T00:00:26.601Z,38.70
2018-07-03T00:02:55.520Z,38.80
2018-07-03T00:05:24.603Z,38.90
2018-07-03T00:07:53.757Z,39.00
2018-07-03T00:10:22.964Z,38.90
2018-07-03T00:12:51.896Z,38.90
2018-07-03T00:15:21.021Z,39.00
2018-07-03T00:17:49.940Z,39.10
2018-07-03T00:20:18.888Z,39.10
2018-07-03T00:22:47.761Z,39.10
2018-07-03T00:25:16.860Z,39.30
2018-07-03T00:27:45.798Z,39.30
2018-07-03T00:30:14.778Z,39.50
2018-07-03T00:32:44.277Z,39.50
2018-07-03T00:35:13.838Z,39.50
2018-07-03T00:37:42.901Z,39.60
2018-07-03T00:40:12.036Z,39.60
2018-07-03T00:42:41.307Z,39.80
2018-07-03T00:45:10.569Z,39.80
2018-07-03T00:50:08.174Z,40.00
2018-07-03T00:52:37.124Z,40.00
2018-07-03T00:55:06.352Z,40.30
2018-07-03T00:57:35.603Z,40.40
2018-07-03T01:00:15.491Z,40.30
2018-07-03T01:02:44.772Z,40.40
2018-07-03T01:05:13.756Z,40.60
2018-07-03T01:07:42.974Z,40.70
2018-07-03T01:10:12.076Z,40.80
2018-07-03T01:12:41.213Z,41.20
2018-07-03T01:15:10.337Z,40.90
2018-07-03T01:17:39.261Z,40.90
2018-07-03T01:20:08.495Z,41.10
2018-07-03T01:22:37.364Z,41.10
2018-07-03T01:27:35.912Z,41.20
2018-07-03T01:30:05.342Z,41.30
2018-07-03T01:32:34.504Z,41.50
2018-07-03T01:35:03.735Z,41.60
2018-07-03T01:37:32.814Z,41.70
2018-07-03T01:40:01.741Z,41.90
2018-07-03T01:42:30.670Z,42.10
2018-07-03T01:44:59.896Z,42.30
2018-07-03T01:49:57.921Z,42.70
2018-07-03T01:52:26.939Z,42.90
2018-07-03T01:54:56.117Z,43.00
2018-07-03T01:57:25.056Z,43.30
2018-07-03T01:59:54.575Z,43.40
2018-07-03T02:02:23.588Z,43.50
2018-07-03T02:04:52.589Z,43.50
2018-07-03T02:07:21.642Z,43.80
2018-07-03T02:09:50.588Z,43.90
2018-07-03T02:12:19.830Z,44.10
2018-07-03T02:14:49.125Z,44.20
2018-07-03T02:17:18.237Z,44.30
2018-07-03T02:19:47.215Z,44.50
2018-07-03T02:22:16.583Z,44.60
2018-07-03T02:24:45.637Z,44.90
2018-07-03T02:27:14.524Z,45.10
2018-07-03T02:29:43.437Z,45.20
2018-07-03T02:32:12.967Z,45.40
2018-07-03T02:34:42.402Z,45.50
2018-07-03T02:37:12.393Z,45.70
2018-07-03T02:39:41.612Z,45.90
2018-07-03T02:42:11.218Z,46.00
2018-07-03T02:44:40.656Z,46.20
2018-07-03T02:47:09.760Z,46.40
2018-07-03T02:49:38.642Z,46.70
2018-07-03T02:52:08.402Z,47.00
2018-07-03T02:59:34.604Z,48.00
2018-07-03T03:02:04.495Z,48.30
2018-07-03T03:04:35.993Z,48.50
2018-07-03T03:07:04.979Z,49.00
2018-07-03T03:09:34.185Z,49.40
2018-07-03T03:12:03.033Z,49.70
2018-07-03T03:14:31.883Z,50.00
2018-07-03T03:17:02.616Z,50.40
2018-07-03T03:19:31.990Z,50.60
2018-07-03T03:22:00.918Z,51.00
2018-07-03T03:24:29.985Z,51.30
2018-07-03T03:29:29.075Z,51.90
2018-07-03T03:34:27.861Z,52.70
2018-07-03T03:36:56.803Z,53.50
2018-07-03T03:39:25.762Z,53.60
2018-07-03T03:41:54.856Z,54.20
2018-07-03T03:44:24.197Z,54.60
2018-07-03T03:46:53.332Z,55.30
2018-07-03T03:49:22.402Z,55.90
2018-07-03T03:51:51.731Z,56.40
2018-07-03T03:54:24.316Z,56.80
2018-07-03T03:56:53.716Z,57.50
2018-07-03T03:59:22.688Z,58.10
2018-07-03T04:01:52.153Z,58.50
2018-07-03T04:04:21.390Z,59.10
2018-07-03T04:06:50.522Z,59.60
2018-07-03T04:09:19.773Z,60.30
2018-07-03T04:11:48.714Z,60.70
2018-07-03T04:14:17.741Z,61.10
2018-07-03T04:16:46.711Z,61.60
2018-07-03T04:19:15.836Z,62.30
2018-07-03T04:21:44.864Z,62.80
2018-07-03T04:26:42.573Z,64.10
2018-07-03T04:29:11.525Z,64.40
2018-07-03T04:31:40.420Z,64.80
2018-07-03T04:34:09.675Z,65.50
2018-07-03T04:36:38.664Z,66.40
2018-07-03T04:39:09.624Z,66.70
2018-07-03T04:41:39.595Z,67.10
2018-07-03T04:44:08.448Z,67.60
2018-07-03T04:46:37.337Z,67.90
2018-07-03T04:49:06.216Z,68.40
2018-07-03T04:51:35.212Z,69.30
2018-07-03T04:54:04.248Z,69.20
2018-07-03T04:56:33.187Z,69.40
2018-07-03T04:59:02.081Z,69.80
2018-07-03T05:01:30.998Z,70.20
2018-07-03T05:04:00.023Z,70.50
2018-07-03T05:06:28.961Z,70.70
2018-07-03T05:08:57.879Z,70.80
2018-07-03T05:11:27.567Z,71.00
2018-07-03T05:13:56.736Z,70.90
2018-07-03T05:16:25.795Z,70.80
2018-07-03T05:18:55.038Z,70.70
2018-07-03T05:21:24.109Z,70.70
2018-07-03T05:23:52.993Z,70.50
2018-07-03T05:26:21.866Z,70.20
2018-07-03T05:28:51.208Z,69.10
2018-07-03T05:31:20.108Z,68.80
2018-07-03T05:33:48.971Z,68.10
2018-07-03T05:36:17.882Z,67.70
2018-07-03T05:38:46.697Z,67.90
2018-07-03T05:41:15.825Z,68.00
2018-07-03T05:43:44.979Z,68.00
2018-07-03T05:46:14.298Z,67.50
2018-07-03T05:48:43.216Z,68.00
2018-07-03T05:51:12.477Z,67.70
2018-07-03T05:53:42.497Z,68.00
2018-07-03T05:56:11.923Z,67.40
2018-07-03T05:58:41.474Z,67.70
2018-07-03T06:01:11.203Z,67.70
2018-07-03T06:03:40.209Z,67.80
2018-07-03T06:06:09.238Z,67.60
2018-07-03T06:08:38.884Z,67.60
2018-07-03T06:11:08.754Z,67.60
2018-07-03T06:13:39.254Z,67.60
2018-07-03T06:16:08.469Z,67.60
2018-07-03T06:18:37.706Z,67.30
2018-07-03T06:21:07.226Z,67.30
2018-07-03T06:23:38.406Z,66.50
2018-07-03T06:26:09.389Z,65.70
2018-07-03T06:28:40.735Z,65.00
2018-07-03T06:31:11.601Z,64.30
2018-07-03T06:33:40.777Z,63.80
2018-07-03T06:36:09.820Z,63.10
2018-07-03T06:38:38.935Z,62.60
2018-07-03T06:41:08.752Z,61.70
2018-07-03T06:43:38.183Z,61.70
2018-07-03T06:46:08.308Z,61.30
2018-07-03T06:48:37.524Z,61.20
2018-07-03T06:51:07.166Z,60.30
2018-07-03T06:53:36.870Z,59.80
2018-07-03T06:56:08.360Z,58.70
2018-07-03T06:58:37.262Z,57.30
2018-07-03T07:01:06.200Z,56.60
2018-07-03T07:03:35.305Z,56.30
2018-07-03T07:06:04.238Z,55.20
2018-07-03T07:08:33.423Z,54.70
2018-07-03T07:11:02.373Z,54.80
2018-07-03T07:13:31.260Z,53.80
2018-07-03T07:16:00.198Z,53.30
2018-07-03T07:18:29.146Z,52.80
2018-07-03T07:20:58.018Z,53.10
2018-07-03T07:23:27.012Z,53.20
2018-07-03T07:25:56.007Z,52.10
2018-07-03T07:28:25.589Z,51.70
2018-07-03T07:30:54.665Z,51.50
2018-07-03T07:33:23.736Z,50.50
2018-07-03T07:35:52.598Z,50.40
2018-07-03T07:38:21.911Z,50.20
2018-07-03T07:40:50.794Z,49.70
2018-07-03T07:43:19.747Z,48.60
2018-07-03T07:45:48.743Z,48.20
2018-07-03T07:48:17.970Z,47.90
2018-07-03T07:53:15.762Z,47.10
2018-07-03T07:55:44.920Z,46.60
2018-07-03T07:58:14.671Z,46.50
2018-07-03T08:00:43.755Z,46.90
2018-07-03T08:03:12.798Z,47.00
2018-07-03T08:05:41.727Z,46.80
2018-07-03T08:08:10.884Z,46.60
2018-07-03T08:15:38.756Z,45.20
2018-07-03T08:18:07.927Z,45.10
2018-07-03T08:23:06.045Z,44.10
2018-07-03T08:25:34.969Z,43.70
2018-07-03T08:28:04.409Z,43.50
2018-07-03T08:30:33.647Z,43.60
2018-07-03T08:33:02.842Z,43.50
2018-07-03T08:35:31.816Z,43.80
2018-07-03T08:38:00.834Z,44.00
2018-07-03T08:40:29.797Z,43.60
2018-07-03T08:42:59.228Z,42.60
2018-07-03T08:45:28.445Z,42.70
2018-07-03T08:47:57.664Z,42.90
2018-07-03T08:50:27.829Z,43.10
2018-07-03T08:52:57.097Z,42.70
2018-07-03T08:55:26.234Z,42.30
2018-07-03T08:57:55.499Z,42.40
2018-07-03T09:00:29.549Z,41.80
2018-07-03T09:02:58.731Z,41.50
2018-07-03T09:05:27.673Z,41.10
2018-07-03T09:07:56.614Z,41.60
2018-07-03T09:10:25.524Z,41.50
2018-07-03T09:12:54.570Z,41.10
2018-07-03T09:15:24.081Z,41.00
2018-07-03T09:17:52.956Z,41.90
2018-07-03T09:20:21.887Z,41.20
2018-07-03T09:22:50.802Z,40.80
2018-07-03T09:25:19.850Z,40.80
2018-07-03T09:27:48.997Z,40.30
2018-07-03T09:30:18.065Z,39.80
2018-07-03T09:32:47.193Z,39.80
2018-07-03T09:35:17.399Z,40.10
2018-07-03T09:37:46.349Z,40.10
2018-07-03T09:40:15.315Z,39.00
2018-07-03T09:42:44.233Z,38.70
2018-07-03T09:45:13.124Z,38.60
2018-07-03T09:47:42.017Z,38.80
2018-07-03T09:50:10.924Z,37.50
2018-07-03T09:52:40.085Z,38.00
2018-07-03T09:55:08.965Z,37.40
2018-07-03T09:57:37.854Z,37.80
2018-07-03T10:00:07.173Z,38.20
2018-07-03T10:02:36.017Z,37.40
2018-07-03T10:05:05.684Z,37.40
2018-07-03T10:07:35.089Z,37.20
2018-07-03T10:10:04.226Z,36.70
2018-07-03T10:12:33.746Z,37.50
2018-07-03T10:15:02.823Z,36.70
2018-07-03T10:17:31.727Z,36.60
2018-07-03T10:20:02.278Z,37.10
2018-07-03T10:22:31.252Z,37.00
2018-07-03T10:25:00.554Z,37.70
2018-07-03T10:27:29.757Z,37.50
2018-07-03T10:32:27.038Z,37.90
2018-07-03T10:34:56.287Z,37.60
2018-07-03T10:37:25.220Z,37.90
2018-07-03T10:39:54.200Z,37.80
2018-07-03T10:42:23.052Z,37.80
2018-07-03T10:47:20.489Z,37.20
2018-07-03T10:49:49.371Z,37.10
2018-07-03T10:52:18.348Z,36.90
2018-07-03T10:54:47.173Z,36.40
2018-07-03T10:57:16.412Z,35.60
2018-07-03T10:59:46.258Z,35.20
2018-07-03T11:02:15.116Z,35.20
2018-07-03T11:04:44.098Z,35.60
2018-07-03T11:07:12.914Z,34.80
2018-07-03T11:09:41.772Z,35.20
2018-07-03T11:12:10.680Z,35.00
2018-07-03T11:14:39.639Z,34.60
2018-07-03T11:17:08.508Z,34.50
2018-07-03T11:19:37.338Z,34.30
2018-07-03T11:22:06.577Z,33.60
2018-07-03T11:27:04.305Z,33.10
2018-07-03T11:29:33.309Z,33.50
2018-07-03T11:32:03.815Z,33.70
2018-07-03T11:34:32.641Z,33.80
2018-07-03T11:37:01.541Z,33.10
2018-07-03T11:39:30.525Z,32.80
2018-07-03T11:41:59.372Z,32.90
2018-07-03T11:44:28.260Z,32.40
2018-07-03T11:46:57.232Z,32.20
2018-07-03T11:49:26.070Z,32.50
2018-07-03T11:51:54.984Z,32.90
2018-07-03T11:54:23.925Z,33.00
2018-07-03T11:59:21.352Z,33.40
2018-07-03T12:01:50.221Z,33.80
2018-07-03T12:04:19.417Z,33.30
2018-07-03T12:06:49.182Z,33.30
2018-07-03T12:09:18.040Z,33.00
2018-07-03T12:11:47.256Z,33.40
2018-07-03T12:14:16.121Z,33.80
2018-07-03T12:16:44.945Z,32.80
2018-07-03T12:19:13.900Z,32.70
2018-07-03T12:21:42.774Z,32.40
2018-07-03T12:24:11.733Z,32.10
2018-07-03T12:26:40.621Z,32.70
2018-07-03T12:29:09.442Z,32.00
2018-07-03T12:31:38.429Z,31.50
2018-07-03T12:34:07.265Z,31.80
2018-07-03T12:36:36.389Z,31.70
2018-07-03T12:39:08.408Z,31.70
2018-07-03T12:44:06.056Z,31.20
2018-07-03T12:46:35.006Z,30.90
2018-07-03T12:49:04.687Z,30.90
2018-07-03T12:51:33.565Z,30.80
2018-07-03T12:54:02.531Z,30.20
2018-07-03T12:56:31.409Z,30.10
2018-07-03T12:59:00.249Z,30.00
2018-07-03T13:01:29.211Z,30.00
2018-07-03T13:03:58.189Z,30.20
2018-07-03T13:06:27.174Z,30.70
2018-07-03T13:08:55.992Z,30.80
2018-07-03T13:11:25.045Z,30.50
2018-07-03T13:13:53.889Z,30.70
2018-07-03T13:16:22.821Z,30.80
2018-07-03T13:18:51.705Z,30.50
2018-07-03T13:21:20.555Z,29.30
2018-07-03T13:23:49.389Z,28.30
2018-07-03T13:26:18.219Z,28.40
2018-07-03T13:28:47.101Z,28.30
2018-07-03T13:31:15.898Z,28.30
2018-07-03T13:33:44.748Z,28.60
2018-07-03T13:36:13.700Z,28.60
2018-07-03T13:38:42.625Z,27.40
2018-07-03T13:41:11.504Z,26.00
2018-07-03T13:43:40.477Z,25.60
2018-07-03T13:46:09.365Z,25.30
2018-07-03T13:48:38.182Z,25.40
2018-07-03T13:51:07.252Z,25.00
2018-07-03T13:53:36.103Z,24.60
2018-07-03T13:56:05.075Z,24.00
2018-07-03T13:58:33.872Z,24.50
2018-07-03T14:01:02.789Z,24.00
2018-07-03T14:03:31.553Z,24.10
2018-07-03T14:06:00.675Z,24.10
2018-07-03T14:08:30.161Z,24.50
2018-07-03T14:10:59.189Z,24.70
2018-07-03T14:13:28.207Z,25.20
2018-07-03T14:15:57.072Z,25.90
2018-07-03T14:18:28.205Z,26.20
2018-07-03T14:20:58.720Z,26.20
2018-07-03T14:23:28.644Z,26.00
2018-07-03T14:25:57.614Z,26.00
2018-07-03T14:28:26.649Z,26.10
2018-07-03T14:30:55.509Z,25.90
2018-07-03T14:33:24.358Z,26.10
2018-07-03T14:35:53.337Z,26.40
2018-07-03T14:38:22.204Z,26.40
2018-07-03T14:40:51.144Z,26.30
2018-07-03T14:43:20.046Z,26.20
2018-07-03T14:45:48.901Z,26.30
2018-07-03T14:48:17.810Z,25.90
2018-07-03T14:50:46.778Z,26.10
2018-07-03T14:53:15.650Z,25.20
2018-07-03T14:55:45.241Z,25.30
2018-07-03T14:58:14.930Z,24.80
2018-07-03T15:00:44.941Z,25.20
2018-07-03T15:03:13.918Z,25.60
2018-07-03T15:05:42.997Z,26.10
2018-07-03T15:08:12.074Z,26.00
2018-07-03T15:10:41.041Z,26.10
2018-07-03T15:13:10.034Z,26.20
2018-07-03T15:15:39.565Z,26.20
2018-07-03T15:18:13.832Z,26.10
2018-07-03T15:20:42.953Z,26.20
2018-07-03T15:23:12.614Z,25.70
2018-07-03T15:25:42.241Z,25.50
2018-07-03T15:28:11.265Z,25.20
2018-07-03T15:30:40.576Z,25.30
2018-07-03T15:33:09.500Z,24.30
2018-07-03T15:35:38.586Z,23.50
2018-07-03T15:38:07.558Z,22.90
2018-07-03T15:40:36.490Z,22.60
2018-07-03T15:43:05.791Z,22.40
2018-07-03T15:45:34.808Z,23.20
2018-07-03T15:48:04.005Z,23.10
2018-07-03T15:50:33.198Z,23.20
2018-07-03T15:55:30.808Z,23.40
2018-07-03T15:57:59.756Z,23.80
2018-07-03T16:00:28.913Z,23.30
2018-07-03T16:03:08.880Z,22.50
2018-07-03T16:05:48.852Z,22.60
2018-07-03T16:08:46.008Z,23.40
2018-07-03T16:11:15.429Z,23.60
2018-07-03T16:13:44.408Z,23.10
2018-07-03T16:16:13.655Z,23.00
2018-07-03T16:18:45.611Z,22.40
2018-07-03T16:21:14.993Z,22.30
2018-07-03T16:23:44.199Z,22.10
2018-07-03T16:26:13.142Z,21.70
2018-07-03T16:28:48.596Z,21.60
2018-07-03T16:31:19.284Z,22.20
2018-07-03T16:33:49.400Z,22.80
2018-07-03T16:36:19.670Z,23.20
2018-07-03T16:38:49.037Z,23.10
2018-07-03T16:41:24.362Z,22.40
2018-07-03T16:48:52.728Z,20.40
2018-07-03T16:51:22.102Z,19.90
2018-07-03T16:56:21.346Z,19.30
2018-07-03T16:58:50.758Z,19.70
2018-07-03T17:01:20.178Z,20.70
2018-07-03T17:03:51.424Z,22.00
2018-07-03T17:06:21.253Z,22.90
2018-07-03T17:08:51.091Z,23.60
2018-07-03T17:11:21.101Z,24.10
2018-07-03T17:13:54.144Z,24.20
2018-07-03T17:16:23.883Z,24.20
2018-07-03T17:18:59.285Z,23.80
2018-07-03T17:21:29.182Z,24.00
2018-07-03T17:23:58.538Z,23.20
2018-07-03T17:26:28.179Z,23.00
2018-07-03T17:28:57.847Z,23.30
2018-07-03T17:31:28.543Z,23.40
2018-07-03T17:33:58.398Z,23.50
2018-07-03T17:36:28.058Z,23.10
2018-07-03T17:38:59.490Z,23.40
2018-07-03T17:41:39.745Z,23.80
2018-07-03T17:44:21.214Z,24.20
2018-07-03T17:46:50.466Z,24.30
2018-07-03T17:49:20.008Z,24.50
2018-07-03T17:54:18.837Z,24.50
2018-07-03T17:56:48.733Z,24.40
2018-07-03T17:59:19.098Z,24.60
2018-07-03T18:01:48.408Z,25.00
2018-07-03T18:04:18.820Z,25.30
2018-07-03T18:06:48.435Z,25.50
2018-07-03T18:09:17.689Z,25.70
2018-07-03T18:14:15.592Z,25.90
2018-07-03T18:16:44.588Z,26.00
2018-07-03T18:19:18.801Z,26.20
2018-07-03T18:21:47.763Z,26.10
2018-07-03T18:24:17.549Z,26.30
2018-07-03T18:26:46.545Z,26.60
2018-07-03T18:29:17.217Z,27.10
2018-07-03T18:31:46.148Z,27.40
2018-07-03T18:34:15.114Z,27.20
2018-07-03T18:36:43.989Z,27.30
2018-07-03T18:39:13.285Z,27.60
2018-07-03T18:41:43.731Z,27.00
2018-07-03T18:44:13.036Z,26.60
2018-07-03T18:46:42.091Z,26.10
2018-07-03T18:49:11.118Z,25.50
2018-07-03T18:51:40.245Z,24.60
2018-07-03T18:54:09.281Z,24.40
2018-07-03T18:56:38.821Z,23.90
2018-07-03T18:59:07.772Z,23.60
2018-07-03T19:01:36.868Z,23.00
2018-07-03T19:04:08.557Z,22.70
2018-07-03T19:06:37.558Z,22.60
2018-07-03T19:09:08.289Z,22.80
2018-07-03T19:11:38.602Z,22.80
2018-07-03T19:14:07.683Z,23.00
2018-07-03T19:16:36.675Z,23.50
2018-07-03T19:19:06.638Z,24.00
2018-07-03T19:21:35.667Z,24.90
2018-07-03T19:24:05.190Z,25.80
2018-07-03T19:26:36.118Z,26.50
2018-07-03T19:29:06.279Z,27.30
2018-07-03T19:31:35.393Z,27.70
2018-07-03T19:34:08.053Z,28.10
2018-07-03T19:36:38.358Z,28.50
2018-07-03T19:39:10.691Z,29.00
2018-07-03T19:41:40.273Z,29.10
2018-07-03T19:44:09.474Z,29.50
2018-07-03T19:46:38.752Z,29.90
2018-07-03T19:49:07.908Z,30.10
2018-07-03T19:51:37.111Z,30.10
2018-07-03T19:54:05.954Z,30.60
2018-07-03T19:56:35.373Z,30.90
2018-07-03T19:59:05.359Z,31.70
2018-07-03T20:01:34.334Z,33.30
2018-07-03T20:04:03.913Z,34.70
2018-07-03T20:06:32.979Z,35.70
2018-07-03T20:09:01.981Z,36.60
2018-07-03T20:11:31.288Z,37.30
2018-07-03T20:16:28.869Z,38.60
2018-07-03T20:21:26.547Z,39.40
2018-07-03T20:23:56.124Z,39.90
2018-07-03T20:26:25.151Z,40.10
2018-07-03T20:28:54.316Z,40.60
2018-07-03T20:31:23.658Z,40.90
2018-07-03T20:36:21.396Z,41.60
2018-07-03T20:38:50.546Z,41.80
2018-07-03T20:41:19.621Z,42.00
2018-07-03T20:43:48.875Z,42.10
2018-07-03T20:46:17.921Z,42.30
2018-07-03T20:48:47.296Z,42.30
2018-07-03T20:51:17.416Z,42.50
2018-07-03T20:53:46.913Z,42.40
2018-07-03T20:56:16.169Z,42.00
2018-07-03T20:58:45.884Z,41.50
2018-07-03T21:01:14.878Z,41.20
2018-07-03T21:03:44.042Z,41.30
2018-07-03T21:06:13.200Z,41.50
2018-07-03T21:08:42.106Z,41.70
2018-07-03T21:11:11.095Z,41.60
2018-07-03T21:13:40.205Z,41.40
2018-07-03T21:16:09.775Z,41.50
2018-07-03T21:18:38.785Z,41.60
2018-07-03T21:23:36.442Z,42.20
2018-07-03T21:26:07.902Z,42.30
2018-07-03T21:28:37.037Z,42.50
2018-07-03T21:31:06.192Z,42.60
2018-07-03T21:33:35.113Z,42.50
2018-07-03T21:36:04.810Z,43.00
2018-07-03T21:38:33.849Z,42.50
2018-07-03T21:41:02.741Z,42.60
2018-07-03T21:43:32.095Z,42.60
2018-07-03T21:46:01.101Z,42.60
2018-07-03T21:48:30.081Z,43.10
2018-07-03T21:50:58.937Z,43.60
2018-07-03T21:53:28.037Z,44.10
2018-07-03T21:55:57.106Z,44.30
2018-07-03T21:58:26.353Z,44.50
2018-07-03T22:00:55.504Z,44.80
2018-07-03T22:03:24.561Z,44.80
2018-07-03T22:05:54.677Z,44.70
2018-07-03T22:08:23.675Z,44.60
2018-07-03T22:10:52.725Z,44.70
2018-07-03T22:15:50.336Z,45.00
2018-07-03T22:18:19.610Z,45.10
2018-07-03T22:20:49.585Z,45.40
2018-07-03T22:23:18.686Z,46.00
2018-07-03T22:25:47.679Z,45.60
2018-07-03T22:28:16.684Z,45.60
2018-07-03T22:30:45.584Z,45.60
2018-07-03T22:33:14.620Z,45.80
2018-07-03T22:35:43.624Z,46.20
2018-07-03T22:38:12.851Z,46.20
2018-07-03T22:40:42.097Z,46.60
2018-07-03T22:43:10.943Z,46.90
2018-07-03T22:45:39.756Z,46.90
2018-07-03T22:48:08.938Z,47.10
2018-07-03T22:50:38.619Z,47.20
2018-07-03T22:53:07.988Z,47.30
2018-07-03T22:55:37.839Z,47.50
2018-07-03T22:58:06.696Z,47.60
2018-07-03T23:00:35.857Z,47.80
2018-07-03T23:03:04.798Z,48.00
2018-07-03T23:05:33.693Z,48.30
2018-07-03T23:08:02.741Z,49.10
2018-07-03T23:10:31.693Z,49.00
2018-07-03T23:15:29.459Z,49.60
2018-07-03T23:17:58.530Z,49.90
2018-07-03T23:20:27.343Z,50.20
2018-07-03T23:22:56.380Z,50.60
2018-07-03T23:25:25.766Z,50.80
2018-07-03T23:27:54.660Z,51.20
2018-07-03T23:30:23.977Z,51.30
2018-07-03T23:32:58.636Z,51.60
2018-07-03T23:35:31.255Z,52.60
2018-07-03T23:38:02.989Z,53.30
2018-07-03T23:40:38.628Z,53.50
2018-07-03T23:43:13.621Z,54.80
2018-07-03T23:45:55.913Z,56.40
2018-07-03T23:48:38.808Z,57.40
2018-07-03T23:51:25.736Z,58.40
2018-07-03T23:54:07.887Z,59.30
2018-07-03T23:56:51.225Z,60.30
2018-07-03T23:59:34.689Z,61.00
